Time;durP1;ratioP1;P1;durP2;ratioP2;P2;SDS_P1;SDS_P2;PMS_P1;PMS_P2;Temp;Humidity;BMP_temperature;BMP_pressure;BME280_temperature;BME280_humidity;BME280_pressure;Samples;Min_cycle;Max_cycle;Signal;HPM_P1;HPM_P2
2020/12/04 00:01:09;;;;;;;1.15;1.00;;;;;;;;;;5010327;28;20387;-77
2020/12/04 00:03:34;;;;;;;0.32;0.30;;;8.80;51.70;;;;;;5011303;28;20517;-78
2020/12/04 00:06:00;;;;;;;0.50;0.50;;;;;;;;;;5010707;28;20108;-77
2020/12/04 00:08:26;;;;;;;0.85;0.70;;;;;;;;;;5009452;28;20485;-78
2020/12/04 00:10:52;;;;;;;0.40;0.40;;;;;;;;;;5010878;28;20026;-78
2020/12/04 00:13:18;;;;;;;1.20;0.70;;;8.60;61.10;;;;;;5012178;28;20026;-78
2020/12/04 00:15:44;;;;;;;0.50;0.50;;;;;;;;;;5018133;28;20026;-77
2020/12/04 00:18:10;;;;;;;1.20;1.10;;;;;;;;;;5014467;28;20477;-77
2020/12/04 00:20:36;;;;;;;1.05;0.85;;;8.80;70.00;;;;;;5012649;28;20026;-78
2020/12/04 00:23:02;;;;;;;0.40;0.40;;;;;;;;;;5014279;28;20033;-78
2020/12/04 00:25:28;;;;;;;0.80;0.60;;;;;;;;;;5011801;28;20529;-78
2020/12/04 00:27:54;;;;;;;0.50;0.50;;;;;;;;;;5010993;28;20474;-78
2020/12/04 00:30:20;;;;;;;0.32;0.32;;;8.60;71.50;;;;;;5010274;28;20398;-78
2020/12/04 00:32:46;;;;;;;1.20;0.52;;;;;;;;;;5010858;28;20030;-78
2020/12/04 00:35:12;;;;;;;0.63;0.50;;;;;;;;;;5012395;28;20049;-78
2020/12/04 00:37:37;;;;;;;0.70;0.43;;;8.70;71.10;;;;;;5010682;28;20022;-77
2020/12/04 00:40:04;;;;;;;0.50;0.47;;;;;;;;;;5010976;28;20018;-77
2020/12/04 00:42:30;;;;;;;5.28;0.60;;;8.70;70.90;;;;;;5011006;28;20080;-78
2020/12/04 00:44:55;;;;;;;0.70;0.70;;;8.80;70.40;;;;;;5014386;28;20026;-77
2020/12/04 00:47:22;;;;;;;0.77;0.77;;;;;;;;;;5014335;28;20030;-77
2020/12/04 00:49:48;;;;;;;0.68;0.57;;;;;;;;;;5013625;28;20022;-78
2020/12/04 00:52:13;;;;;;;1.67;0.60;;;8.90;71.10;;;;;;5019321;28;20022;-78
2020/12/04 00:54:39;;;;;;;0.80;0.50;;;9.00;71.00;;;;;;5015802;28;20025;-77
2020/12/04 00:57:08;;;;;;;0.40;0.40;;;9.00;53.00;;;;;;5014353;28;20045;-77
2020/12/04 00:59:34;;;;;;;0.47;0.47;;;9.10;70.10;;;;;;5013538;28;20025;-78
2020/12/04 01:01:59;;;;;;;0.40;0.40;;;8.90;70.70;;;;;;5015036;28;20021;-78
2020/12/04 01:04:25;;;;;;;0.60;0.60;;;;;;;;;;5014458;28;20033;-78
2020/12/04 01:06:51;;;;;;;0.38;0.38;;;8.80;70.60;;;;;;5015626;28;20034;-77
2020/12/04 01:09:17;;;;;;;0.47;0.47;;;;;;;;;;5012664;28;20021;-78
2020/12/04 01:11:43;;;;;;;1.90;0.60;;;9.00;70.50;;;;;;5014584;28;20029;-78
2020/12/04 01:14:09;;;;;;;0.55;0.55;;;;;;;;;;5014635;28;20025;-78
2020/12/04 01:16:35;;;;;;;0.63;0.63;;;;;;;;;;5014931;28;20486;-78
2020/12/04 01:19:00;;;;;;;0.50;0.50;;;9.10;63.40;;;;;;5010745;28;20029;-77
2020/12/04 01:21:26;;;;;;;0.40;0.40;;;;;;;;;;5015039;28;20030;-78
2020/12/04 01:23:54;;;;;;;0.43;0.43;;;8.90;54.60;;;;;;5013792;28;20026;-78
2020/12/04 01:26:20;;;;;;;0.57;0.50;;;;;;;;;;5013964;28;20029;-77
2020/12/04 01:28:46;;;;;;;1.52;1.42;;;8.90;71.30;;;;;;5012331;28;20033;-78
2020/12/04 01:31:11;;;;;;;0.50;0.50;;;8.80;71.30;;;;;;5014890;28;20430;-77
2020/12/04 01:33:37;;;;;;;0.88;0.68;;;;;;;;;;5015121;28;20045;-77
2020/12/04 01:36:04;;;;;;;2.35;0.57;;;8.70;70.30;;;;;;5015121;28;20033;-77
2020/12/04 01:38:29;;;;;;;0.40;0.40;;;8.90;70.80;;;;;;5010591;28;20117;-77
2020/12/04 01:41:02;;;;;;;0.38;0.38;;;9.10;70.10;;;;;;5014942;28;20061;-78
2020/12/04 01:43:28;;;;;;;0.30;0.30;;;8.90;49.00;;;;;;5017904;28;20021;-78
2020/12/04 01:45:55;;;;;;;0.45;0.35;;;8.90;47.20;;;;;;5022977;28;20099;-78
2020/12/04 01:48:21;;;;;;;1.48;0.60;;;8.90;69.90;;;;;;5011953;28;20056;-78
2020/12/04 01:50:49;;;;;;;0.40;0.40;;;9.00;69.70;;;;;;5014719;28;20493;-78
2020/12/04 01:53:15;;;;;;;0.88;0.45;;;;;;;;;;5014376;28;20018;-78
2020/12/04 01:55:41;;;;;;;0.98;0.52;;;9.10;69.70;;;;;;5013404;28;20033;-77
2020/12/04 01:58:11;;;;;;;0.43;0.43;;;;;;;;;;5009582;28;20125;-77
2020/12/04 02:00:37;;;;;;;0.50;0.50;;;;;;;;;;5012009;28;20026;-77
2020/12/04 02:03:03;;;;;;;0.30;0.30;;;9.20;54.90;;;;;;5014454;28;20037;-77
2020/12/04 02:05:29;;;;;;;1.83;0.63;;;;;;;;;;5014830;28;20030;-78
2020/12/04 02:08:14;;;;;;;0.65;0.65;;;9.00;69.60;;;;;;5013991;28;20371;-78
2020/12/04 02:10:46;;;;;;;0.30;0.30;;;9.10;69.10;;;;;;5020133;28;20462;-78
2020/12/04 02:13:14;;;;;;;0.30;0.30;;;9.10;46.00;;;;;;5014188;28;20014;-78
2020/12/04 02:15:40;;;;;;;1.30;0.55;;;;;;;;;;5013094;28;20026;-78
2020/12/04 02:18:06;;;;;;;5.25;0.75;;;9.40;69.10;;;;;;5013057;28;20470;-78
2020/12/04 02:20:33;;;;;;;0.50;0.50;;;9.30;56.80;;;;;;5011589;28;20546;-77
2020/12/04 02:22:59;;;;;;;0.50;0.50;;;;;;;;;;5015222;28;20494;-78
2020/12/04 02:25:25;;;;;;;0.63;0.45;;;9.20;68.80;;;;;;5024831;28;20284;-77
2020/12/04 02:27:51;;;;;;;0.40;0.40;;;9.00;69.20;;;;;;5012965;28;20129;-79
2020/12/04 02:30:27;;;;;;;0.40;0.40;;;9.30;47.10;;;;;;5012332;28;20406;-78
2020/12/04 02:32:53;;;;;;;0.60;0.52;;;9.10;70.20;;;;;;5012147;28;20029;-79
2020/12/04 02:35:20;;;;;;;0.40;0.40;;;9.20;70.30;;;;;;5013970;28;20018;-78
2020/12/04 02:37:45;;;;;;;0.60;0.57;;;9.10;70.20;;;;;;5012539;28;20026;-78
2020/12/04 02:40:11;;;;;;;0.57;0.55;;;;;;;;;;5011045;28;20497;-78
2020/12/04 02:42:40;;;;;;;0.77;0.50;;;9.30;70.60;;;;;;5012135;28;20088;-77
2020/12/04 02:45:05;;;;;;;0.40;0.40;;;9.20;70.50;;;;;;5012108;28;20022;-78
2020/12/04 02:47:31;;;;;;;0.50;0.50;;;;;;;;;;5012838;28;20052;-78
2020/12/04 02:49:57;;;;;;;0.40;0.40;;;8.90;57.40;;;;;;5017254;28;20100;-77
2020/12/04 02:52:24;;;;;;;0.40;0.40;;;9.10;48.00;;;;;;5015628;28;20101;-78
2020/12/04 02:54:50;;;;;;;0.82;0.50;;;9.00;70.60;;;;;;5011923;28;20022;-78
2020/12/04 02:57:16;;;;;;;0.60;0.60;;;;;;;;;;5010996;28;20601;-78
2020/12/04 02:59:43;;;;;;;1.63;0.57;;;9.40;70.70;;;;;;5011508;28;20052;-77
2020/12/04 03:02:09;;;;;;;0.30;0.30;;;;;;;;;;5013665;28;20494;-78
2020/12/04 03:04:36;;;;;;;1.08;0.60;;;9.20;71.30;;;;;;5013835;28;20034;-78
2020/12/04 03:07:02;;;;;;;1.00;0.65;;;;;;;;;;5012964;28;20103;-78
2020/12/04 03:09:27;;;;;;;0.40;0.40;;;9.00;54.30;;;;;;5010683;28;20840;-77
2020/12/04 03:11:58;;;;;;;0.73;0.50;;;9.00;49.10;;;;;;5013377;28;20058;-78
2020/12/04 03:14:23;;;;;;;0.73;0.57;;;8.90;73.10;;;;;;5012958;28;20044;-78
2020/12/04 03:16:50;;;;;;;9.85;0.70;;;;;;;;;;5011921;28;20459;-78
2020/12/04 03:19:15;;;;;;;0.70;0.60;;;9.10;72.70;;;;;;5009493;28;20824;-78
2020/12/04 03:21:41;;;;;;;0.60;0.60;;;;;;;;;;5013267;28;20501;-78
2020/12/04 03:24:07;;;;;;;0.68;0.40;;;9.10;50.00;;;;;;5013388;28;20022;-78
2020/12/04 03:26:33;;;;;;;1.17;0.50;;;;;;;;;;5013098;28;20031;-78
2020/12/04 03:28:59;;;;;;;0.45;0.45;;;;;;;;;;5008582;28;20401;-78
2020/12/04 03:31:25;;;;;;;0.60;0.60;;;8.80;75.60;;;;;;5007631;28;20037;-78
2020/12/04 03:33:51;;;;;;;0.40;0.40;;;;;;;;;;5011645;28;20397;-77
2020/12/04 03:36:17;;;;;;;0.32;0.32;;;;;;;;;;5012902;28;20026;-77
2020/12/04 03:38:43;;;;;;;0.30;0.30;;;;;;;;;;5010389;28;20025;-78
2020/12/04 03:41:09;;;;;;;0.40;0.40;;;9.10;74.70;;;;;;5011105;28;20043;-78
2020/12/04 03:43:40;;;;;;;0.30;0.30;;;9.10;75.40;;;;;;5017797;28;20493;-78
2020/12/04 03:46:10;;;;;;;0.57;0.50;;;9.10;75.40;;;;;;5013719;28;20048;-77
2020/12/04 03:48:36;;;;;;;0.30;0.30;;;9.00;52.20;;;;;;5011347;28;20025;-77
2020/12/04 03:51:02;;;;;;;0.60;0.50;;;;;;;;;;5011170;28;20037;-78
2020/12/04 03:53:28;;;;;;;0.50;0.50;;;9.20;75.50;;;;;;5012510;28;20057;-77
2020/12/04 03:55:54;;;;;;;0.22;0.22;;;9.00;57.60;;;;;;5012276;28;20490;-77
2020/12/04 03:58:20;;;;;;;0.30;0.30;;;;;;;;;;5010798;28;20035;-78
2020/12/04 04:00:45;;;;;;;0.38;0.38;;;8.70;75.60;;;;;;5008523;28;20024;-78
2020/12/04 04:03:11;;;;;;;0.30;0.30;;;;;;;;;;5012619;28;20025;-77
2020/12/04 04:05:38;;;;;;;0.38;0.38;;;;;;;;;;5011152;28;20501;-78
2020/12/04 04:08:04;;;;;;;0.40;0.40;;;9.10;76.00;;;;;;5011756;28;20037;-77
2020/12/04 04:10:30;;;;;;;0.40;0.40;;;;;;;;;;5010563;28;20030;-78
2020/12/04 04:12:56;;;;;;;0.30;0.30;;;;;;;;;;5012724;28;20494;-78
2020/12/04 04:15:22;;;;;;;0.47;0.40;;;;;;;;;;5012131;28;20073;-79
2020/12/04 04:17:48;;;;;;;0.30;0.30;;;;;;;;;;5010800;28;20084;-78
2020/12/04 04:20:14;;;;;;;0.30;0.30;;;;;;;;;;5010226;28;20512;-78
2020/12/04 04:22:40;;;;;;;0.38;0.38;;;8.70;75.90;;;;;;5014225;28;20022;-77
2020/12/04 04:25:06;;;;;;;0.20;0.20;;;8.90;75.60;;;;;;5016736;28;20025;-78
2020/12/04 04:27:32;;;;;;;0.20;0.20;;;;;;;;;;5013677;28;20033;-77
2020/12/04 04:29:58;;;;;;;0.30;0.30;;;;;;;;;;5011626;28;20029;-78
2020/12/04 04:32:23;;;;;;;0.43;0.30;;;9.30;73.90;;;;;;5015550;28;20034;-78
2020/12/04 04:34:49;;;;;;;0.30;0.30;;;;;;;;;;5014759;28;20465;-77
2020/12/04 04:37:15;;;;;;;1.40;0.90;;;9.50;72.70;;;;;;5019745;28;20033;-77
2020/12/04 04:39:43;;;;;;;0.30;0.30;;;;;;;;;;5013790;28;20026;-78
2020/12/04 04:42:10;;;;;;;0.30;0.28;;;9.30;50.30;;;;;;5014585;28;20112;-77
2020/12/04 04:44:36;;;;;;;0.40;0.40;;;;;;;;;;5016000;28;20037;-78
2020/12/04 04:47:11;;;;;;;0.30;0.30;;;9.00;51.50;;;;;;5013713;28;20660;-78
2020/12/04 04:49:45;;;;;;;0.98;0.40;;;8.70;74.50;;;;;;5012977;28;20041;-77
2020/12/04 04:52:10;;;;;;;0.30;0.30;;;9.40;74.30;;;;;;5015119;28;20026;-78
2020/12/04 04:54:41;;;;;;;0.40;0.40;;;9.20;74.30;;;;;;5014817;28;20140;-78
2020/12/04 04:57:09;;;;;;;0.50;0.50;;;;;;;;;;5014152;28;20077;-79
2020/12/04 04:59:34;;;;;;;1.38;0.40;;;8.60;77.00;;;;;;5014145;28;20022;-78
2020/12/04 05:02:00;;;;;;;0.40;0.40;;;;;;;;;;5018635;28;20516;-78
2020/12/04 05:04:26;;;;;;;0.40;0.40;;;8.60;70.80;;;;;;5001981;28;20545;-78
2020/12/04 05:06:52;;;;;;;1.05;0.55;;;;;;;;;;5015792;28;20109;-78
2020/12/04 05:09:26;;;;;;;0.55;0.55;;;8.40;54.60;;;;;;5012770;28;20022;-78
2020/12/04 05:12:00;;;;;;;0.40;0.40;;;8.40;56.40;;;;;;5014356;28;20572;-78
2020/12/04 05:14:27;;;;;;;0.50;0.40;;;8.60;83.80;;;;;;5022821;28;20025;-77
2020/12/04 05:16:55;;;;;;;0.40;0.40;;;8.20;60.20;;;;;;5019624;28;20049;-78
2020/12/04 05:19:31;;;;;;;0.50;0.50;;;8.10;60.20;;;;;;5012121;28;20249;-77
2020/12/04 05:22:06;;;;;;;0.35;0.35;;;8.20;86.70;;;;;;5015516;28;20030;-77
2020/12/04 05:24:32;;;;;;;0.65;0.65;;;7.90;86.90;;;;;;5015413;28;20026;-78
2020/12/04 05:26:58;;;;;;;0.40;0.40;;;;;;;;;;5014535;28;20068;-78
2020/12/04 05:29:36;;;;;;;0.40;0.40;;;8.20;86.70;;;;;;5017242;28;20041;-78
2020/12/04 05:32:15;;;;;;;0.35;0.30;;;7.80;86.30;;;;;;5015305;28;20026;-78
2020/12/04 05:34:41;;;;;;;1.35;0.65;;;8.10;87.40;;;;;;5013593;28;20029;-78
2020/12/04 05:37:12;;;;;;;1.08;0.70;;;8.30;66.50;;;;;;5012266;28;20018;-78
2020/12/04 05:39:46;;;;;;;1.20;0.57;;;8.10;64.00;;;;;;5018375;28;20405;-77
2020/12/04 05:42:32;;;;;;;0.30;0.30;;;8.20;64.00;;;;;;5013319;28;20029;-78
2020/12/04 05:44:58;;;;;;;0.43;0.43;;;7.80;86.90;;;;;;5013746;28;20410;-78
2020/12/04 05:47:35;;;;;;;0.40;0.40;;;8.20;87.40;;;;;;5018034;28;20033;-77
2020/12/04 05:50:01;;;;;;;0.40;0.40;;;8.20;87.40;;;;;;5011292;28;20521;-77
2020/12/04 05:52:27;;;;;;;0.63;0.40;;;;;;;;;;5013237;28;20025;-78
2020/12/04 05:54:53;;;;;;;0.30;0.30;;;;;;;;;;5016019;28;20017;-78
2020/12/04 05:57:21;;;;;;;0.35;0.30;;;8.30;87.20;;;;;;5012228;28;20050;-78
2020/12/04 05:59:48;;;;;;;0.30;0.30;;;8.80;86.60;;;;;;5013204;28;20068;-77
2020/12/04 06:02:14;;;;;;;0.20;0.20;;;8.70;62.60;;;;;;5013112;28;20026;-78
2020/12/04 06:04:42;;;;;;;0.95;0.40;;;8.60;86.10;;;;;;5014677;28;20034;-77
2020/12/04 06:07:12;;;;;;;1.15;0.73;;;8.40;87.70;;;;;;5011802;28;20378;-78
2020/12/04 06:09:42;;;;;;;0.55;0.50;;;8.20;82.20;;;;;;5020863;28;20030;-79
2020/12/04 06:12:11;;;;;;;0.88;0.80;;;7.90;67.70;;;;;;5014038;28;20506;-78
2020/12/04 06:14:37;;;;;;;3.20;0.82;;;7.90;89.10;;;;;;5012420;28;20064;-78
2020/12/04 06:17:03;;;;;;;1.73;1.63;;;8.00;89.60;;;;;;5011517;28;20560;-78
2020/12/04 06:19:31;;;;;;;0.40;0.40;;;7.80;86.40;;;;;;5012039;28;20017;-77
2020/12/04 06:22:07;;;;;;;2.08;0.70;;;7.60;65.10;;;;;;5022892;28;20037;-77
2020/12/04 06:24:56;;;;;;;0.35;0.35;;;7.40;63.20;;;;;;5013176;28;20026;-78
2020/12/04 06:27:34;;;;;;;1.58;0.70;;;7.50;84.00;;;;;;5012304;28;20030;-78
2020/12/04 06:30:00;;;;;;;0.20;0.20;;;;;;;;;;5002191;28;20109;-78
2020/12/04 06:32:48;;;;;;;0.20;0.20;;;7.30;76.30;;;;;;5012311;28;20064;-78
2020/12/04 06:35:31;;;;;;;0.20;0.20;;;7.40;61.40;;;;;;5001410;28;20033;-78
2020/12/04 06:37:57;;;;;;;0.30;0.30;;;7.20;69.20;;;;;;5010695;28;20501;-78
2020/12/04 06:40:32;;;;;;;0.55;0.55;;;;;;;;;;5012058;28;20018;-78
2020/12/04 06:43:00;;;;;;;0.25;0.25;;;7.20;88.10;;;;;;5011824;28;20048;-78
2020/12/04 06:45:45;;;;;;;;;;;7.10;62.60;;;;;;5014108;28;20022;-78
2020/12/04 06:48:12;;;;;;;0.20;0.20;;;7.10;87.40;;;;;;5025426;28;19909;-78
2020/12/04 06:50:43;;;;;;;0.20;0.20;;;7.10;62.40;;;;;;5011175;28;20026;-77
2020/12/04 06:53:11;;;;;;;0.68;0.68;;;6.90;85.60;;;;;;5011229;28;20029;-77
2020/12/04 06:55:38;;;;;;;0.40;0.40;;;6.80;62.20;;;;;;5010335;28;20402;-76
2020/12/04 06:58:05;;;;;;;0.30;0.30;;;7.00;60.30;;;;;;5010222;28;20032;-76
2020/12/04 07:00:32;;;;;;;0.40;0.40;;;7.20;80.30;;;;;;5012235;28;20048;-77
2020/12/04 07:03:02;;;;;;;0.43;0.43;;;7.00;79.20;;;;;;5013713;28;20030;-78
2020/12/04 07:05:29;;;;;;;1.73;0.38;;;7.20;58.70;;;;;;5010464;28;20014;-78
2020/12/04 07:08:05;;;;;;;0.40;0.40;;;7.20;57.20;;;;;;5011620;28;20161;-77
2020/12/04 07:10:31;;;;;;;0.30;0.30;;;;;;;;;;5007335;28;20030;-78
2020/12/04 07:12:58;;;;;;;0.20;0.20;;;7.20;56.00;;;;;;5012243;28;20025;-77
2020/12/04 07:15:24;;;;;;;0.50;0.50;;;;;;;;;;5008648;28;20021;-78
2020/12/04 07:17:50;;;;;;;1.50;0.82;;;;;;;;;;5012398;28;20108;-77
2020/12/04 07:20:16;;;;;;;1.00;0.70;;;7.60;69.30;;;;;;5012595;28;20144;-77
2020/12/04 07:22:43;;;;;;;0.55;0.50;;;;;;;;;;5011723;28;20049;-78
2020/12/04 07:25:09;;;;;;;0.40;0.40;;;;;;;;;;5012276;28;20026;-78
2020/12/04 07:27:35;;;;;;;0.40;0.40;;;7.80;77.80;;;;;;5010946;28;20125;-78
2020/12/04 07:30:12;;;;;;;0.40;0.40;;;7.70;55.00;;;;;;5011297;28;20056;-77
2020/12/04 07:32:39;;;;;;;0.30;0.30;;;;;;;;;;5009483;28;20030;-77
2020/12/04 07:35:04;;;;;;;1.58;0.68;;;7.70;79.20;;;;;;5011617;28;20509;-78
2020/12/04 07:37:30;;;;;;;0.45;0.45;;;;;;;;;;5012775;28;20021;-77
2020/12/04 07:39:56;;;;;;;0.40;0.40;;;7.70;69.10;;;;;;5011679;28;20037;-77
2020/12/04 07:42:22;;;;;;;0.43;0.43;;;7.90;54.20;;;;;;5010235;28;20032;-76
2020/12/04 07:44:52;;;;;;;1.48;0.43;;;7.50;65.70;;;;;;5016586;28;20037;-77
2020/12/04 07:47:18;;;;;;;0.50;0.50;;;7.60;53.60;;;;;;5016077;28;20021;-77
2020/12/04 07:49:56;;;;;;;0.43;0.43;;;7.50;76.80;;;;;;5012180;28;20033;-77
2020/12/04 07:52:28;;;;;;;0.45;0.45;;;7.50;53.50;;;;;;5012317;28;20544;-77
2020/12/04 07:55:06;;;;;;;17.40;0.73;;;7.50;52.60;;;;;;5011507;28;20026;-77
2020/12/04 07:57:39;;;;;;;0.40;0.40;;;7.50;77.40;;;;;;4998638;28;20065;-77
2020/12/04 08:00:09;;;;;;;0.63;0.50;;;7.50;53.80;;;;;;5010726;28;20033;-77
2020/12/04 08:02:35;;;;;;;0.82;0.40;;;7.60;77.90;;;;;;5010589;28;20363;-77
2020/12/04 08:05:01;;;;;;;1.45;0.55;;;;;;;;;;5010454;28;20033;-77
2020/12/04 08:07:31;;;;;;;1.23;0.50;;;7.80;77.40;;;;;;5010395;28;20075;-77
2020/12/04 08:10:01;;;;;;;2.70;0.50;;;7.60;55.00;;;;;;5012158;28;20663;-77
2020/12/04 08:12:31;;;;;;;0.40;0.40;;;7.60;79.90;;;;;;5012673;28;20081;-77
2020/12/04 08:14:59;;;;;;;0.52;0.52;;;7.80;59.20;;;;;;5012193;28;20026;-77
2020/12/04 08:17:29;;;;;;;1.48;1.38;;;7.70;55.30;;;;;;5010631;28;20022;-76
2020/12/04 08:19:56;;;;;;;3.28;0.75;;;7.80;77.80;;;;;;5011875;28;20112;-77
2020/12/04 08:22:33;;;;;;;2.08;0.45;;;6.70;54.00;;;;;;5010926;28;20041;-77
2020/12/04 08:25:04;;;;;;;1.43;1.13;;;7.60;78.20;;;;;;5012160;28;20532;-77
2020/12/04 08:27:34;;;;;;;0.63;0.63;;;7.70;55.00;;;;;;5011022;28;20773;-77
2020/12/04 08:30:24;;;;;;;4.70;1.15;;;7.70;55.30;;;;;;5010901;28;20018;-77
2020/12/04 08:33:01;;;;;;;0.30;0.30;;;7.40;70.70;;;;;;5012377;28;20032;-77
2020/12/04 08:35:35;;;;;;;0.40;0.40;;;7.60;67.70;;;;;;5012424;28;20025;-77
2020/12/04 08:38:11;;;;;;;0.30;0.30;;;7.80;54.20;;;;;;5028912;28;20017;-77
2020/12/04 08:40:41;;;;;;;0.40;0.40;;;8.00;54.30;;;;;;5031392;28;20072;-77
2020/12/04 08:43:15;;;;;;;0.80;0.45;;;8.00;60.30;;;;;;5020058;28;20025;-77
2020/12/04 08:45:44;;;;;;;3.22;0.55;;;7.50;76.60;;;;;;5014119;28;20030;-77
2020/12/04 08:48:18;;;;;;;0.40;0.40;;;7.90;53.70;;;;;;5011322;28;20030;-77
2020/12/04 08:51:06;;;;;;;0.43;0.43;;;8.10;76.60;;;;;;5023347;28;20506;-77
2020/12/04 08:53:33;;;;;;;0.32;0.32;;;7.50;52.50;;;;;;5020589;28;20021;-77
2020/12/04 08:56:00;;;;;;;0.43;0.43;;;7.60;52.40;;;;;;5011803;28;20052;-77
2020/12/04 08:58:27;;;;;;;0.82;0.60;;;7.20;75.80;;;;;;5011965;28;20761;-77
2020/12/04 09:00:55;;;;;;;0.30;0.30;;;7.50;52.80;;;;;;5013836;28;20714;-77
2020/12/04 09:03:22;;;;;;;0.60;0.60;;;7.70;52.10;;;;;;5011764;28;20038;-77
2020/12/04 09:05:50;;;;;;;1.25;0.40;;;7.60;51.40;;;;;;5011565;28;20033;-77
2020/12/04 09:08:16;;;;;;;0.40;0.40;;;7.50;74.90;;;;;;5014974;28;20026;-78
2020/12/04 09:10:42;;;;;;;2.53;0.85;;;;;;;;;;5013861;28;22232;-77
2020/12/04 09:13:09;;;;;;;0.50;0.50;;;8.10;72.10;;;;;;5015109;28;20029;-76
2020/12/04 09:15:36;;;;;;;0.50;0.50;;;8.40;74.30;;;;;;5015223;28;20100;-78
2020/12/04 09:18:02;;;;;;;0.30;0.30;;;8.30;73.20;;;;;;5015209;28;20030;-77
2020/12/04 09:20:30;;;;;;;0.70;0.70;;;8.20;50.60;;;;;;5015266;28;20022;-77
2020/12/04 09:22:56;;;;;;;3.42;1.20;;;8.30;73.50;;;;;;5014836;28;20113;-77
2020/12/04 09:25:23;;;;;;;1.85;0.93;;;7.80;74.10;;;;;;5015228;28;20010;-77
2020/12/04 09:27:50;;;;;;;3.72;1.50;;;8.60;52.60;;;;;;5015091;28;20065;-77
2020/12/04 09:30:18;;;;;;;0.85;0.63;;;8.70;50.50;;;;;;5014778;28;20030;-77
2020/12/04 09:32:45;;;;;;;0.73;0.50;;;8.60;62.50;;;;;;5014393;28;20060;-77
2020/12/04 09:35:11;;;;;;;0.65;0.47;;;;;;;;;;5014769;28;20029;-77
2020/12/04 09:37:38;;;;;;;0.50;0.40;;;8.50;49.40;;;;;;5017960;28;20112;-76
2020/12/04 09:40:10;;;;;;;0.45;0.45;;;8.70;71.90;;;;;;5014807;28;20457;-77
2020/12/04 09:42:37;;;;;;;0.47;0.47;;;8.60;71.40;;;;;;5014662;28;20377;-76
2020/12/04 09:45:04;;;;;;;0.98;0.50;;;8.50;49.50;;;;;;5013343;28;20018;-77
2020/12/04 09:47:31;;;;;;;0.47;0.47;;;8.50;72.40;;;;;;5014768;28;20505;-78
2020/12/04 09:49:57;;;;;;;0.20;0.20;;;8.40;72.00;;;;;;5027777;28;20909;-77
2020/12/04 09:52:23;;;;;;;0.55;0.55;;;8.30;49.30;;;;;;5027345;28;20048;-77
2020/12/04 09:54:49;;;;;;;0.60;0.30;;;;;;;;;;5021249;28;20438;-77
2020/12/04 09:57:17;;;;;;;1.00;0.60;;;8.10;50.00;;;;;;5012020;28;20038;-77
2020/12/04 09:59:43;;;;;;;0.30;0.30;;;;;;;;;;5014561;28;20057;-77
2020/12/04 10:02:10;;;;;;;3.20;1.60;;;8.20;73.90;;;;;;5014098;28;20018;-77
2020/12/04 10:04:38;;;;;;;0.93;0.57;;;;;;;;;;5014536;28;20069;-77
2020/12/04 10:07:04;;;;;;;0.40;0.40;;;8.30;59.00;;;;;;5012315;28;20018;-77
2020/12/04 10:09:31;;;;;;;0.73;0.50;;;;;;;;;;5013572;28;20017;-77
2020/12/04 10:11:57;;;;;;;0.95;0.50;;;7.50;52.80;;;;;;5014506;28;20025;-77
2020/12/04 10:14:24;;;;;;;0.50;0.50;;;;;;;;;;5013843;28;20072;-78
2020/12/04 10:16:51;;;;;;;0.30;0.30;;;8.20;50.80;;;;;;5013712;28;20378;-78
2020/12/04 10:19:18;;;;;;;1.65;0.60;;;8.30;50.30;;;;;;5013119;28;20048;-78
2020/12/04 10:21:46;;;;;;;0.68;0.60;;;8.20;73.30;;;;;;5014152;28;20022;-77
2020/12/04 10:24:12;;;;;;;0.98;0.43;;;8.20;50.20;;;;;;5014140;28;20459;-76
2020/12/04 10:26:45;;;;;;;1.08;0.75;;;8.30;64.50;;;;;;5021414;28;20018;-77
2020/12/04 10:29:11;;;;;;;0.60;0.60;;;;;;;;;;5018638;28;20030;-76
2020/12/04 10:31:37;;;;;;;0.65;0.50;;;8.60;72.00;;;;;;5013679;28;20121;-77
2020/12/04 10:34:03;;;;;;;1.10;1.10;;;;;;;;;;5013599;28;20018;-77
2020/12/04 10:36:30;;;;;;;1.40;0.73;;;8.20;73.10;;;;;;5013179;28;20131;-77
2020/12/04 10:38:59;;;;;;;0.40;0.40;;;8.10;49.80;;;;;;5011857;28;20572;-77
2020/12/04 10:41:33;;;;;;;1.25;0.47;;;8.70;51.00;;;;;;5011067;28;20033;-76
2020/12/04 10:44:02;;;;;;;2.65;1.52;;;8.00;50.70;;;;;;5013188;28;20178;-76
2020/12/04 10:46:28;;;;;;;0.60;0.60;;;7.90;74.10;;;;;;5011837;28;20022;-76
2020/12/04 10:48:54;;;;;;;2.40;0.60;;;;;;;;;;5011790;28;20513;-77
2020/12/04 10:51:21;;;;;;;1.00;0.73;;;7.60;75.40;;;;;;5012259;28;20030;-76
2020/12/04 10:53:47;;;;;;;0.30;0.30;;;;;;;;;;5013242;28;20010;-77
2020/12/04 10:56:16;;;;;;;0.50;0.50;;;7.70;75.00;;;;;;5011464;28;20104;-76
2020/12/04 10:58:42;;;;;;;0.40;0.40;;;7.70;75.70;;;;;;5012261;28;20026;-75
2020/12/04 11:01:12;;;;;;;0.80;0.77;;;7.80;55.40;;;;;;5013258;28;20033;-76
2020/12/04 11:05:30;;;;;;;1.52;0.70;;;;;;;;;;5012880;28;20022;-76
2020/12/04 11:06:29;;;;;;;2.42;0.50;;;7.90;71.70;;;;;;5010130;28;20040;-76
2020/12/04 11:08:55;;;;;;;0.60;0.60;;;;;;;;;;5012804;28;20030;-76
2020/12/04 11:11:27;;;;;;;0.63;0.63;;;7.90;50.10;;;;;;5011848;28;20079;-76
2020/12/04 11:13:53;;;;;;;0.40;0.40;;;;;;;;;;5010259;28;20032;-76
2020/12/04 11:16:19;;;;;;;0.68;0.68;;;;;;;;;;5012267;28;20072;-76
2020/12/04 11:18:45;;;;;;;0.73;0.50;;;;;;;;;;5012700;28;20018;-76
2020/12/04 11:21:11;;;;;;;2.17;0.65;;;;;;;;;;5012607;28;20026;-76
2020/12/04 11:23:37;;;;;;;0.65;0.60;;;8.00;73.30;;;;;;5012586;28;20029;-76
2020/12/04 11:26:03;;;;;;;0.30;0.30;;;;;;;;;;5012075;28;20026;-76
2020/12/04 11:28:29;;;;;;;1.27;0.65;;;;;;;;;;5012383;28;20020;-77
2020/12/04 11:30:54;;;;;;;0.45;0.45;;;8.30;71.70;;;;;;5003941;28;20403;-76
2020/12/04 11:33:21;;;;;;;0.43;0.43;;;;;;;;;;5011278;28;20028;-76
2020/12/04 11:35:46;;;;;;;0.32;0.32;;;7.80;73.30;;;;;;5012263;28;20103;-76
2020/12/04 11:38:14;;;;;;;0.68;0.57;;;;;;;;;;5012940;28;20482;-76
2020/12/04 11:40:39;;;;;;;;;;;8.10;49.40;;;;;;5013473;28;20026;-76
2020/12/04 11:43:06;;;;;;;0.70;0.60;;;;;;;;;;5012479;28;20352;-76
2020/12/04 11:45:32;;;;;;;0.88;0.57;;;;;;;;;;5012973;28;20053;-77
2020/12/04 11:47:58;;;;;;;0.70;0.63;;;8.70;50.20;;;;;;5012116;28;20085;-76
2020/12/04 11:50:24;;;;;;;0.70;0.70;;;8.40;73.10;;;;;;5012484;28;20093;-76
2020/12/04 11:52:50;;;;;;;3.97;1.15;;;;;;;;;;5012475;28;20028;-77
2020/12/04 11:55:16;;;;;;;1.38;0.80;;;8.90;73.30;;;;;;5012596;28;20029;-77
2020/12/04 11:57:42;;;;;;;2.33;0.73;;;9.30;71.40;;;;;;5011215;28;20050;-76
2020/12/04 12:00:09;;;;;;;0.90;0.73;;;9.60;70.40;;;;;;5011342;28;20060;-76
2020/12/04 12:02:35;;;;;;;0.60;0.60;;;;;;;;;;5012494;28;20032;-76
2020/12/04 12:05:01;;;;;;;0.73;0.60;;;9.90;69.80;;;;;;5012378;28;20029;-76
2020/12/04 12:07:27;;;;;;;1.70;0.98;;;;;;;;;;5012327;28;20398;-76
2020/12/04 12:09:53;;;;;;;0.77;0.70;;;10.10;53.90;;;;;;5012891;28;20119;-77
2020/12/04 12:12:19;;;;;;;1.25;0.60;;;;;;;;;;5010984;28;20076;-77
2020/12/04 12:14:46;;;;;;;0.85;0.85;;;9.40;71.80;;;;;;5012491;28;20018;-76
2020/12/04 12:17:12;;;;;;;0.60;0.60;;;8.90;73.30;;;;;;5012343;28;20097;-76
2020/12/04 12:19:40;;;;;;;1.53;1.13;;;;;;;;;;5012476;28;20018;-76
2020/12/04 12:22:07;;;;;;;1.13;1.00;;;8.30;52.60;;;;;;5012587;28;20026;-76
2020/12/04 12:24:33;;;;;;;0.98;0.93;;;;;;;;;;5012135;28;20129;-76
2020/12/04 12:26:59;;;;;;;0.90;0.80;;;;;;;;;;5008870;28;20383;-76
2020/12/04 12:29:25;;;;;;;1.30;1.20;;;7.70;78.40;;;;;;5010953;28;20495;-77
2020/12/04 12:31:51;;;;;;;2.40;0.90;;;7.60;72.40;;;;;;5011688;28;20040;-77
2020/12/04 12:34:17;;;;;;;5.20;0.52;;;;;;;;;;5009729;28;20117;-76
2020/12/04 12:36:43;;;;;;;0.52;0.52;;;;;;;;;;5011686;28;20097;-77
2020/12/04 12:39:09;;;;;;;0.63;0.60;;;7.50;78.90;;;;;;5011661;28;20054;-79
2020/12/04 12:41:35;;;;;;;1.27;0.95;;;;;;;;;;5012591;28;20150;-76
2020/12/04 12:44:00;;;;;;;0.65;0.65;;;8.10;76.90;;;;;;5014586;28;20116;-75
2020/12/04 12:46:27;;;;;;;0.40;0.40;;;;;;;;;;5015875;28;20088;-75
2020/12/04 12:48:53;;;;;;;1.02;0.60;;;;;;;;;;5024089;28;20025;-75
2020/12/04 12:51:19;;;;;;;0.55;0.55;;;;;;;;;;5029010;28;20024;-76
2020/12/04 12:53:44;;;;;;;0.65;0.40;;;8.00;75.30;;;;;;5022814;28;20494;-75
2020/12/04 12:56:10;;;;;;;0.40;0.40;;;;;;;;;;5015307;28;20065;-76
2020/12/04 12:58:36;;;;;;;0.63;0.47;;;8.20;74.30;;;;;;5015201;28;20046;-75
2020/12/04 13:01:02;;;;;;;0.60;0.60;;;;;;;;;;5015677;28;20061;-76
2020/12/04 13:03:28;;;;;;;0.75;0.73;;;;;;;;;;5016593;28;20494;-76
2020/12/04 13:05:54;;;;;;;1.02;0.70;;;8.10;54.50;;;;;;5014878;28;20028;-76
2020/12/04 13:08:21;;;;;;;0.50;0.50;;;8.30;74.70;;;;;;5014523;28;20104;-76
2020/12/04 13:10:49;;;;;;;0.70;0.68;;;;;;;;;;5014732;28;20026;-76
2020/12/04 13:13:14;;;;;;;1.30;0.98;;;7.90;75.50;;;;;;5005012;28;20026;-76
2020/12/04 13:15:42;;;;;;;0.60;0.60;;;8.20;52.80;;;;;;5014958;28;20030;-76
2020/12/04 13:18:08;;;;;;;1.92;0.70;;;;;;;;;;5015107;28;20501;-76
2020/12/04 13:20:34;;;;;;;1.20;0.60;;;8.10;75.40;;;;;;5015373;28;20022;-76
2020/12/04 13:23:14;;;;;;;0.98;0.70;;;7.90;67.30;;;;;;5010211;28;20033;-76
2020/12/04 13:25:40;;;;;;;1.98;0.70;;;;;;;;;;5015105;28;20022;-76
2020/12/04 13:28:05;;;;;;;2.35;0.88;;;7.90;55.90;;;;;;5011402;28;20029;-76
2020/12/04 13:30:31;;;;;;;1.40;0.50;;;7.90;77.70;;;;;;5014829;28;20022;-76
2020/12/04 13:33:00;;;;;;;6.65;0.80;;;;;;;;;;5014865;28;20021;-78